createdAt,value
2019-02-02T00:00:16.698Z,40.20
2019-02-02T00:01:16.517Z,39.00
2019-02-02T00:02:16.516Z,39.50
2019-02-02T00:03:16.558Z,41.30
2019-02-02T00:04:17.578Z,42.10
2019-02-02T00:05:16.647Z,42.00
2019-02-02T00:06:16.470Z,41.80
2019-02-02T00:07:16.454Z,41.80
2019-02-02T00:08:16.495Z,42.60
2019-02-02T00:09:16.476Z,42.20
2019-02-02T00:10:16.475Z,42.50
2019-02-02T00:11:16.483Z,42.70
2019-02-02T00:13:17.623Z,43.00
2019-02-02T00:14:16.414Z,40.90
2019-02-02T00:15:16.403Z,40.30
2019-02-02T00:16:16.378Z,41.70
2019-02-02T00:17:16.420Z,43.00
2019-02-02T00:18:16.417Z,42.00
2019-02-02T00:20:17.450Z,41.70
2019-02-02T00:21:37.373Z,43.80
2019-02-02T00:22:37.391Z,41.80
2019-02-02T00:23:37.365Z,42.30
2019-02-02T00:24:16.381Z,43.80
2019-02-02T00:25:16.273Z,43.80
2019-02-02T00:26:16.276Z,44.20
2019-02-02T00:27:16.285Z,46.60
2019-02-02T00:28:16.240Z,44.30
2019-02-02T00:29:16.297Z,44.50
2019-02-02T00:30:16.290Z,45.20
2019-02-02T00:31:20.405Z,45.60
2019-02-02T00:32:16.314Z,46.20
2019-02-02T00:33:18.237Z,45.00
2019-02-02T00:34:16.177Z,44.50
2019-02-02T00:35:16.175Z,46.90
2019-02-02T00:36:16.185Z,48.20
2019-02-02T00:37:16.159Z,45.20
2019-02-02T00:38:16.183Z,46.30
2019-02-02T00:39:16.189Z,45.40
2019-02-02T00:40:16.113Z,43.60
2019-02-02T00:41:16.269Z,47.40
2019-02-02T00:42:16.090Z,46.20
2019-02-02T00:43:16.160Z,48.40
2019-02-02T00:44:16.149Z,47.20
2019-02-02T00:45:24.522Z,47.80
2019-02-02T00:46:16.054Z,46.40
2019-02-02T00:47:24.853Z,47.30
2019-02-02T00:48:16.024Z,47.10
2019-02-02T00:49:16.065Z,47.90
2019-02-02T00:50:16.082Z,46.60
2019-02-02T00:51:16.153Z,49.90
2019-02-02T00:52:18.061Z,49.40
2019-02-02T00:53:15.969Z,48.20
2019-02-02T00:54:16.097Z,48.00
2019-02-02T00:55:16.022Z,47.10
2019-02-02T00:56:18.937Z,50.20
2019-02-02T00:57:15.931Z,47.20
2019-02-02T00:58:15.939Z,47.80
2019-02-02T00:59:15.929Z,49.40
2019-02-02T01:00:15.969Z,49.50
2019-02-02T01:01:15.981Z,49.60
2019-02-02T01:02:15.888Z,50.20
2019-02-02T01:03:15.877Z,49.00
2019-02-02T01:04:15.866Z,51.30
2019-02-02T01:05:15.845Z,51.30
2019-02-02T01:06:15.856Z,51.50
2019-02-02T01:07:15.850Z,53.30
2019-02-02T01:08:15.857Z,49.70
2019-02-02T01:09:15.858Z,52.90
2019-02-02T01:10:15.802Z,52.20
2019-02-02T01:11:15.829Z,52.40
2019-02-02T01:12:15.910Z,53.40
2019-02-02T01:13:15.764Z,52.70
2019-02-02T01:14:15.752Z,52.20
2019-02-02T01:15:15.770Z,53.40
2019-02-02T01:16:15.758Z,52.20
2019-02-02T01:17:15.752Z,53.40
2019-02-02T01:18:15.770Z,52.80
2019-02-02T01:19:17.718Z,52.10
2019-02-02T01:20:15.695Z,53.30
2019-02-02T01:21:15.719Z,53.40
2019-02-02T01:22:15.702Z,53.70
2019-02-02T01:23:15.710Z,53.80
2019-02-02T01:24:17.706Z,52.10
2019-02-02T01:25:15.690Z,54.70
2019-02-02T01:26:15.651Z,53.60
2019-02-02T01:27:15.707Z,55.10
2019-02-02T01:28:15.656Z,55.90
2019-02-02T01:29:15.599Z,55.70
2019-02-02T01:30:15.601Z,56.10
2019-02-02T01:31:15.579Z,57.70
2019-02-02T01:32:15.690Z,55.40
2019-02-02T01:33:17.643Z,55.60
2019-02-02T01:34:15.594Z,56.60
2019-02-02T01:35:15.567Z,56.50
2019-02-02T01:36:15.560Z,56.90
2019-02-02T01:37:15.577Z,58.40
2019-02-02T01:38:15.601Z,57.60
2019-02-02T01:39:15.587Z,56.20
2019-02-02T01:40:15.618Z,57.70
2019-02-02T01:41:15.498Z,56.60
2019-02-02T01:42:15.514Z,56.50
2019-02-02T01:43:15.441Z,55.90
2019-02-02T01:44:15.442Z,56.80
2019-02-02T01:45:15.502Z,58.30
2019-02-02T01:46:15.427Z,61.50
2019-02-02T01:47:15.437Z,57.70
2019-02-02T01:48:15.596Z,57.30
2019-02-02T01:49:15.484Z,58.90
2019-02-02T01:50:15.463Z,58.30
2019-02-02T01:51:15.405Z,58.60
2019-02-02T01:52:15.367Z,58.50
2019-02-02T01:53:17.454Z,59.70
2019-02-02T01:54:15.403Z,59.50
2019-02-02T01:55:15.391Z,60.70
2019-02-02T01:56:15.390Z,61.10
2019-02-02T01:57:15.393Z,59.90
2019-02-02T01:58:16.969Z,59.70
2019-02-02T01:59:15.358Z,60.10
2019-02-02T02:00:15.323Z,60.10
2019-02-02T02:01:15.332Z,60.50
2019-02-02T02:02:15.245Z,59.70
2019-02-02T02:03:15.385Z,58.90
2019-02-02T02:04:15.289Z,61.10
2019-02-02T02:05:15.224Z,59.90
2019-02-02T02:06:15.209Z,61.10
2019-02-02T02:07:15.206Z,60.20
2019-02-02T02:08:15.357Z,59.40
2019-02-02T02:09:15.238Z,60.50
2019-02-02T02:10:15.182Z,63.30
2019-02-02T02:11:15.174Z,62.50
2019-02-02T02:12:15.137Z,63.30
2019-02-02T02:13:15.257Z,61.40
2019-02-02T02:14:15.119Z,62.70
2019-02-02T02:15:15.111Z,61.70
2019-02-02T02:16:15.118Z,61.20
2019-02-02T02:17:15.077Z,63.80
2019-02-02T02:18:15.188Z,63.90
2019-02-02T02:19:15.165Z,64.10
2019-02-02T02:20:15.106Z,64.50
2019-02-02T02:21:15.124Z,66.50
2019-02-02T02:22:17.107Z,64.90
2019-02-02T02:23:15.033Z,65.70
2019-02-02T02:24:15.034Z,64.00
2019-02-02T02:25:15.008Z,66.20
2019-02-02T02:26:14.998Z,64.60
2019-02-02T02:27:16.985Z,65.20
2019-02-02T02:28:14.999Z,62.90
2019-02-02T02:29:14.981Z,68.00
2019-02-02T02:30:14.946Z,67.60
2019-02-02T02:31:14.949Z,67.60
2019-02-02T02:32:14.938Z,66.60
2019-02-02T02:33:14.975Z,65.80
2019-02-02T02:34:17.943Z,66.10
2019-02-02T02:35:14.889Z,68.00
2019-02-02T02:36:14.909Z,66.80
2019-02-02T02:38:15.933Z,66.30
2019-02-02T02:39:16.949Z,63.60
2019-02-02T02:40:35.864Z,67.70
2019-02-02T02:41:14.836Z,66.20
2019-02-02T02:42:14.843Z,64.40
2019-02-02T02:43:14.838Z,67.30
2019-02-02T02:44:14.856Z,67.90
2019-02-02T02:45:14.817Z,68.80
2019-02-02T02:46:14.761Z,66.30
2019-02-02T02:47:14.776Z,68.00
2019-02-02T02:48:16.789Z,67.70
2019-02-02T02:49:14.940Z,66.50
2019-02-02T02:51:15.792Z,67.50
2019-02-02T02:52:14.703Z,65.60
2019-02-02T02:53:14.696Z,67.40
2019-02-02T02:54:14.706Z,67.90
2019-02-02T02:55:14.730Z,67.50
2019-02-02T02:57:15.724Z,68.60
2019-02-02T02:58:14.644Z,72.90
2019-02-02T02:59:14.669Z,73.50
2019-02-02T03:01:15.690Z,69.00
2019-02-02T03:02:14.685Z,76.20
2019-02-02T03:03:14.677Z,71.90
2019-02-02T03:04:14.694Z,71.30
2019-02-02T03:05:14.575Z,67.30
2019-02-02T03:06:14.556Z,73.20
2019-02-02T03:07:14.576Z,68.00
2019-02-02T03:09:15.633Z,73.70
2019-02-02T03:10:14.588Z,71.60
2019-02-02T03:11:14.577Z,73.70
2019-02-02T03:12:14.588Z,74.90
2019-02-02T03:13:14.580Z,76.60
2019-02-02T03:14:14.590Z,78.40
2019-02-02T03:15:14.564Z,77.30
2019-02-02T03:16:14.464Z,74.10
2019-02-02T03:17:14.450Z,75.40
2019-02-02T03:18:14.436Z,73.10
2019-02-02T03:19:14.434Z,74.60
2019-02-02T03:20:14.449Z,75.60
2019-02-02T03:21:14.398Z,77.50
2019-02-02T03:22:14.389Z,73.40
2019-02-02T03:23:14.379Z,74.90
2019-02-02T03:24:14.380Z,77.20
2019-02-02T03:25:14.404Z,75.40
2019-02-02T03:26:14.373Z,77.50
2019-02-02T03:27:14.332Z,76.00
2019-02-02T03:28:14.318Z,73.60
2019-02-02T03:29:14.330Z,75.80
2019-02-02T03:30:14.436Z,76.10
2019-02-02T03:31:14.313Z,76.30
2019-02-02T03:32:14.295Z,77.60
2019-02-02T03:33:14.272Z,84.30
2019-02-02T03:34:14.265Z,75.20
2019-02-02T03:35:14.334Z,77.50
2019-02-02T03:36:14.251Z,80.30
2019-02-02T03:37:14.243Z,76.90
2019-02-02T03:38:14.226Z,80.80
2019-02-02T03:39:14.212Z,79.30
2019-02-02T03:40:14.249Z,80.80
2019-02-02T03:41:14.206Z,77.20
2019-02-02T03:42:14.187Z,78.90
2019-02-02T03:43:14.167Z,76.60
2019-02-02T03:44:14.150Z,76.00
2019-02-02T03:45:14.170Z,71.90
2019-02-02T03:49:45.684Z,71.90
2019-02-02T03:51:34.245Z,73.00
2019-02-02T03:52:55.226Z,74.90
2019-02-02T03:53:34.247Z,75.30
2019-02-02T03:54:34.222Z,77.00
2019-02-02T03:55:34.361Z,74.30
2019-02-02T03:56:34.194Z,74.70
2019-02-02T03:57:34.172Z,76.10
2019-02-02T03:58:34.170Z,77.40
2019-02-02T03:59:34.152Z,77.10
2019-02-02T04:00:34.177Z,78.70
2019-02-02T04:01:34.132Z,76.90
2019-02-02T04:02:34.132Z,77.10
2019-02-02T04:03:34.211Z,80.00
2019-02-02T04:04:34.104Z,75.70
2019-02-02T04:05:34.114Z,78.00
2019-02-02T04:06:34.126Z,79.50
2019-02-02T04:07:34.682Z,78.60
2019-02-02T04:08:34.056Z,79.80
2019-02-02T04:09:34.050Z,80.10
2019-02-02T04:10:34.051Z,78.80
2019-02-02T04:11:34.117Z,82.10
2019-02-02T04:12:34.016Z,76.50
2019-02-02T04:13:36.054Z,79.00
2019-02-02T04:14:34.003Z,79.60
2019-02-02T04:15:33.986Z,77.30
2019-02-02T04:16:33.999Z,77.30
2019-02-02T04:17:33.983Z,76.40
2019-02-02T04:18:33.948Z,78.40
2019-02-02T04:19:33.944Z,80.60
2019-02-02T04:20:33.968Z,81.10
2019-02-02T04:21:33.956Z,79.40
2019-02-02T04:22:35.816Z,77.50
2019-02-02T04:23:33.930Z,79.80
2019-02-02T04:24:33.888Z,78.30
2019-02-02T04:25:33.880Z,80.20
2019-02-02T04:26:33.901Z,78.80
2019-02-02T04:27:33.862Z,78.40
2019-02-02T04:28:33.862Z,79.40
2019-02-02T04:29:33.846Z,79.20
2019-02-02T04:31:34.964Z,77.50
2019-02-02T04:32:33.808Z,78.80
2019-02-02T04:33:33.838Z,79.50
2019-02-02T04:34:33.801Z,79.60
2019-02-02T04:35:33.778Z,79.80
2019-02-02T04:36:33.792Z,79.50
2019-02-02T04:37:33.758Z,78.70
2019-02-02T04:38:33.746Z,78.70
2019-02-02T04:39:33.750Z,79.90
2019-02-02T04:40:33.722Z,78.60
2019-02-02T04:41:36.720Z,80.00
2019-02-02T04:42:33.752Z,80.60
2019-02-02T04:43:42.714Z,80.20
2019-02-02T04:44:33.676Z,78.90
2019-02-02T04:45:42.723Z,75.60
2019-02-02T04:46:33.687Z,80.60
2019-02-02T04:47:33.687Z,76.80
2019-02-02T04:48:33.636Z,75.90
2019-02-02T04:49:33.637Z,78.80
2019-02-02T04:50:33.642Z,72.60
2019-02-02T04:51:33.621Z,78.30
2019-02-02T04:52:33.624Z,80.20
2019-02-02T04:53:33.586Z,75.70
2019-02-02T04:54:33.571Z,76.50
2019-02-02T04:55:33.609Z,69.90
2019-02-02T04:56:33.616Z,77.70
2019-02-02T04:57:33.561Z,77.80
2019-02-02T04:58:33.532Z,77.10
2019-02-02T04:59:33.523Z,78.10
2019-02-02T05:00:33.518Z,80.20
2019-02-02T05:01:33.507Z,77.40
2019-02-02T05:02:33.527Z,79.10
2019-02-02T05:03:33.501Z,76.70
2019-02-02T05:04:33.508Z,80.00
2019-02-02T05:05:33.456Z,77.60
2019-02-02T05:06:33.455Z,87.10
2019-02-02T05:07:33.547Z,84.10
2019-02-02T05:08:33.439Z,74.50
2019-02-02T05:09:33.432Z,80.10
2019-02-02T05:10:33.411Z,81.10
2019-02-02T05:11:33.401Z,80.90
2019-02-02T05:12:33.472Z,77.90
2019-02-02T05:13:35.383Z,79.80
2019-02-02T05:14:35.372Z,80.10
2019-02-02T05:15:33.354Z,80.80
2019-02-02T05:16:33.344Z,74.00
2019-02-02T05:17:33.398Z,75.90
2019-02-02T05:18:33.371Z,78.70
2019-02-02T05:19:33.358Z,74.30
2019-02-02T05:20:33.306Z,73.10
2019-02-02T05:21:33.288Z,77.10
2019-02-02T05:22:33.281Z,75.50
2019-02-02T05:23:33.292Z,76.30
2019-02-02T05:24:33.277Z,77.20
2019-02-02T05:25:36.200Z,77.80
2019-02-02T05:26:33.244Z,80.30
2019-02-02T05:27:33.222Z,79.90
2019-02-02T05:28:33.235Z,74.40
2019-02-02T05:29:41.076Z,77.00
2019-02-02T05:30:34.206Z,77.00
2019-02-02T05:31:33.189Z,76.40
2019-02-02T05:32:33.196Z,76.90
2019-02-02T05:33:33.197Z,79.40
2019-02-02T05:34:33.154Z,80.00
2019-02-02T05:35:33.141Z,78.40
2019-02-02T05:36:33.173Z,80.00
2019-02-02T05:37:33.131Z,80.40
2019-02-02T05:38:33.135Z,80.40
2019-02-02T05:39:33.094Z,79.90
2019-02-02T05:40:33.094Z,81.90
2019-02-02T05:41:33.087Z,83.10
2019-02-02T05:42:33.098Z,80.20
2019-02-02T05:43:33.091Z,83.40
2019-02-02T05:44:42.255Z,78.50
2019-02-02T05:45:33.048Z,79.50
2019-02-02T05:46:42.337Z,80.60
2019-02-02T05:47:33.052Z,79.40
2019-02-02T05:48:35.070Z,76.60
2019-02-02T05:49:33.011Z,76.70
2019-02-02T05:50:33.007Z,77.20
2019-02-02T05:51:32.983Z,78.10
2019-02-02T05:52:33.788Z,76.80
2019-02-02T05:53:32.984Z,75.60
2019-02-02T05:54:32.947Z,78.40
2019-02-02T05:55:32.930Z,73.40
2019-02-02T05:56:32.921Z,80.00
2019-02-02T05:57:32.913Z,78.10
2019-02-02T05:58:32.933Z,76.80
2019-02-02T05:59:32.886Z,79.00
2019-02-02T06:00:32.906Z,70.10
2019-02-02T06:01:32.891Z,77.60
2019-02-02T06:02:32.863Z,79.80
2019-02-02T06:03:32.880Z,79.10
2019-02-02T06:04:32.836Z,79.10
2019-02-02T06:05:32.844Z,76.20
2019-02-02T06:06:32.819Z,77.30
2019-02-02T06:08:33.961Z,76.60
2019-02-02T06:09:32.847Z,79.50
2019-02-02T06:10:34.805Z,79.60
2019-02-02T06:11:32.781Z,74.10
2019-02-02T06:12:32.767Z,78.50
2019-02-02T06:13:32.807Z,82.50
2019-02-02T06:14:32.773Z,79.70
2019-02-02T06:15:32.747Z,80.80
2019-02-02T06:16:32.709Z,80.20
2019-02-02T06:17:32.713Z,76.10
2019-02-02T06:18:32.739Z,79.60
2019-02-02T06:19:32.759Z,78.00
2019-02-02T06:20:32.682Z,78.70
2019-02-02T06:21:32.661Z,72.40
2019-02-02T06:22:32.655Z,77.40
2019-02-02T06:23:32.637Z,78.60
2019-02-02T06:24:32.682Z,78.00
2019-02-02T06:25:32.625Z,78.20
2019-02-02T06:26:32.611Z,79.20
2019-02-02T06:27:32.597Z,79.20
2019-02-02T06:28:32.597Z,79.20
2019-02-02T06:29:32.592Z,76.90
2019-02-02T06:30:32.624Z,80.20
2019-02-02T06:32:33.617Z,77.80
2019-02-02T06:33:53.533Z,77.20
2019-02-02T06:34:53.566Z,79.10
2019-02-02T06:35:32.527Z,75.60
2019-02-02T06:36:32.511Z,75.10
2019-02-02T06:37:53.523Z,80.10
2019-02-02T06:38:53.491Z,74.90
2019-02-02T06:39:32.539Z,76.10
2019-02-02T06:40:32.483Z,76.50
2019-02-02T06:41:32.451Z,78.80
2019-02-02T06:42:32.441Z,77.60
2019-02-02T06:44:33.533Z,76.20
2019-02-02T06:45:32.477Z,76.70
2019-02-02T06:46:43.047Z,75.40
2019-02-02T06:48:33.445Z,76.60
2019-02-02T06:49:32.357Z,75.10
2019-02-02T06:50:32.428Z,77.90
2019-02-02T06:52:33.425Z,75.00
2019-02-02T06:53:32.339Z,75.80
2019-02-02T06:54:33.981Z,77.00
2019-02-02T06:55:32.407Z,78.50
2019-02-02T06:56:32.289Z,76.70
2019-02-02T06:57:32.281Z,77.70
2019-02-02T06:58:32.274Z,76.80
2019-02-02T06:59:32.293Z,76.50
2019-02-02T07:00:32.511Z,75.30
2019-02-02T07:02:33.345Z,76.30
2019-02-02T07:03:32.235Z,74.30
2019-02-02T07:04:32.221Z,75.40
2019-02-02T07:05:33.920Z,74.50
2019-02-02T07:06:32.199Z,75.40
2019-02-02T07:07:32.199Z,75.70
2019-02-02T07:08:32.183Z,75.40
2019-02-02T07:09:32.190Z,75.80
2019-02-02T07:10:32.165Z,75.50
2019-02-02T07:11:32.131Z,76.30
2019-02-02T07:12:32.126Z,75.20
2019-02-02T07:13:32.138Z,77.10
2019-02-02T07:14:32.169Z,77.70
2019-02-02T07:15:32.221Z,76.50
2019-02-02T07:16:32.094Z,74.70
2019-02-02T07:17:32.071Z,75.60
2019-02-02T07:18:32.081Z,75.60
2019-02-02T07:19:32.087Z,77.30
2019-02-02T07:20:32.139Z,75.40
2019-02-02T07:21:32.077Z,72.60
2019-02-02T07:22:32.064Z,73.40
2019-02-02T07:23:32.034Z,74.10
2019-02-02T07:24:34.045Z,72.50
2019-02-02T07:25:32.111Z,70.60
2019-02-02T07:26:32.005Z,74.80
2019-02-02T07:27:32.021Z,76.40
2019-02-02T07:28:31.965Z,74.80
2019-02-02T07:29:31.945Z,76.00
2019-02-02T07:30:32.043Z,78.60
2019-02-02T07:31:31.970Z,75.60
2019-02-02T07:33:33.177Z,75.50
2019-02-02T07:34:52.956Z,77.50
2019-02-02T07:35:54.135Z,75.80
2019-02-02T07:36:52.913Z,77.10
2019-02-02T07:37:31.923Z,76.50
2019-02-02T07:38:31.902Z,80.70
2019-02-02T07:39:31.892Z,77.00
2019-02-02T07:40:31.885Z,75.90
2019-02-02T07:42:32.954Z,78.50
2019-02-02T07:43:31.889Z,80.10
2019-02-02T07:44:31.874Z,78.70
2019-02-02T07:45:31.893Z,76.10
2019-02-02T07:46:31.911Z,74.10
2019-02-02T07:47:31.847Z,74.90
2019-02-02T07:48:31.760Z,73.00
2019-02-02T07:49:31.749Z,73.40
2019-02-02T07:50:31.736Z,74.70
2019-02-02T07:51:31.979Z,73.60
2019-02-02T07:52:31.781Z,76.60
2019-02-02T07:53:31.749Z,75.70
2019-02-02T07:54:33.741Z,74.60
2019-02-02T07:55:31.726Z,74.60
2019-02-02T07:56:31.815Z,75.90
2019-02-02T07:57:31.839Z,76.40
2019-02-02T07:58:31.711Z,75.90
2019-02-02T07:59:31.725Z,73.10
2019-02-02T08:00:40.322Z,74.60
2019-02-02T08:01:32.768Z,72.00
2019-02-02T08:02:31.681Z,76.60
2019-02-02T08:03:31.657Z,84.90
2019-02-02T08:04:31.657Z,85.60
2019-02-02T08:05:31.637Z,79.10
2019-02-02T08:06:31.683Z,77.50
2019-02-02T08:07:31.611Z,75.90
2019-02-02T08:08:31.566Z,72.30
2019-02-02T08:09:31.556Z,77.70
2019-02-02T08:10:31.598Z,76.40
2019-02-02T08:11:31.622Z,76.30
2019-02-02T08:12:31.578Z,75.10
2019-02-02T08:13:31.537Z,74.30
2019-02-02T08:14:31.496Z,71.90
2019-02-02T08:15:31.538Z,74.80
2019-02-02T08:16:33.658Z,75.70
2019-02-02T08:17:32.418Z,74.30
2019-02-02T08:18:31.489Z,75.90
2019-02-02T08:19:31.588Z,72.40
2019-02-02T08:20:31.488Z,75.60
2019-02-02T08:21:31.456Z,74.20
2019-02-02T08:22:31.537Z,83.70
2019-02-02T08:23:31.463Z,75.50
2019-02-02T08:24:31.422Z,78.70
2019-02-02T08:25:31.401Z,79.70
2019-02-02T08:26:31.372Z,76.10
2019-02-02T08:27:31.373Z,78.70
2019-02-02T08:28:31.337Z,78.40
2019-02-02T08:29:31.328Z,75.10
2019-02-02T08:30:31.362Z,74.70
2019-02-02T08:31:31.370Z,73.90
2019-02-02T08:32:31.319Z,73.70
2019-02-02T08:33:31.286Z,79.20
2019-02-02T08:34:31.338Z,78.20
2019-02-02T08:35:31.275Z,75.80
2019-02-02T08:36:31.289Z,76.20
2019-02-02T08:37:31.383Z,72.60
2019-02-02T08:38:31.279Z,75.40
2019-02-02T08:39:35.309Z,73.30
2019-02-02T08:41:32.284Z,77.00
2019-02-02T08:42:31.210Z,73.00
2019-02-02T08:43:31.181Z,73.10
2019-02-02T08:44:31.238Z,75.50
2019-02-02T08:45:31.193Z,74.40
2019-02-02T08:46:31.173Z,73.40
2019-02-02T08:47:32.808Z,73.60
2019-02-02T08:48:31.177Z,70.90
2019-02-02T08:49:31.116Z,72.20
2019-02-02T08:50:31.154Z,71.90
2019-02-02T08:51:31.153Z,74.80
2019-02-02T08:52:31.158Z,73.20
2019-02-02T08:53:31.200Z,72.60
2019-02-02T08:54:31.118Z,73.30
2019-02-02T08:55:31.156Z,74.30
2019-02-02T08:56:31.042Z,74.20
2019-02-02T08:57:31.086Z,71.00
2019-02-02T08:58:31.033Z,72.80
2019-02-02T08:59:31.017Z,74.20
2019-02-02T09:00:31.044Z,75.60
2019-02-02T09:01:30.991Z,76.20
2019-02-02T09:02:31.046Z,72.50
2019-02-02T09:03:31.131Z,72.90
2019-02-02T09:04:31.022Z,73.70
2019-02-02T09:05:30.997Z,72.30
2019-02-02T09:06:38.687Z,72.20
2019-02-02T09:07:31.915Z,73.20
2019-02-02T09:08:30.946Z,71.70
2019-02-02T09:09:30.911Z,71.80
2019-02-02T09:10:30.927Z,73.30
2019-02-02T09:11:30.951Z,71.50
2019-02-02T09:12:30.921Z,71.50
2019-02-02T09:13:30.890Z,69.30
2019-02-02T09:14:30.896Z,71.90
2019-02-02T09:15:30.899Z,72.70
2019-02-02T09:16:30.898Z,68.90
2019-02-02T09:17:30.876Z,70.30
2019-02-02T09:18:32.434Z,71.20
2019-02-02T09:20:31.909Z,72.50
2019-02-02T09:21:30.788Z,70.60
2019-02-02T09:22:30.789Z,70.30
2019-02-02T09:24:31.875Z,82.10
2019-02-02T09:25:32.839Z,72.10
2019-02-02T09:26:30.725Z,70.20
2019-02-02T09:28:31.783Z,73.70
2019-02-02T09:29:30.713Z,73.60
2019-02-02T09:30:30.742Z,72.00
2019-02-02T09:31:30.766Z,70.60
2019-02-02T09:32:32.768Z,70.90
2019-02-02T09:33:30.835Z,74.20
2019-02-02T09:34:30.709Z,72.20
2019-02-02T09:35:30.640Z,74.70
2019-02-02T09:36:30.662Z,72.10
2019-02-02T09:37:30.616Z,70.90
2019-02-02T09:38:30.738Z,71.30
2019-02-02T09:39:30.658Z,73.50
2019-02-02T09:40:30.660Z,70.70
2019-02-02T09:41:30.644Z,70.10
2019-02-02T09:42:30.576Z,68.70
2019-02-02T09:43:30.554Z,68.40
2019-02-02T09:44:30.593Z,67.30
2019-02-02T09:45:30.600Z,71.60
2019-02-02T09:46:32.624Z,77.80
2019-02-02T09:47:30.567Z,70.30
2019-02-02T09:48:30.508Z,71.20
2019-02-02T09:49:33.488Z,68.70
2019-02-02T09:50:30.528Z,78.20
2019-02-02T09:51:30.536Z,72.20
2019-02-02T09:52:30.543Z,74.40
2019-02-02T09:53:39.334Z,72.30
2019-02-02T09:54:30.521Z,70.20
2019-02-02T09:55:30.576Z,71.70
2019-02-02T09:56:32.638Z,69.10
2019-02-02T09:57:30.500Z,71.30
2019-02-02T09:58:30.428Z,69.50
2019-02-02T09:59:38.581Z,76.90
2019-02-02T10:00:31.551Z,73.40
2019-02-02T10:01:35.439Z,72.90
2019-02-02T10:02:31.364Z,68.50
2019-02-02T10:03:30.341Z,69.60
2019-02-02T10:04:32.471Z,72.00
2019-02-02T10:05:32.497Z,70.20
2019-02-02T10:06:30.372Z,67.90
2019-02-02T10:07:30.357Z,70.10
2019-02-02T10:08:30.289Z,69.80
2019-02-02T10:09:30.353Z,70.70
2019-02-02T10:11:31.341Z,68.40
2019-02-02T10:12:51.275Z,70.50
2019-02-02T10:13:30.292Z,67.90
2019-02-02T10:14:30.252Z,71.20
2019-02-02T10:15:30.395Z,68.60
2019-02-02T10:16:30.300Z,69.70
2019-02-02T10:17:30.257Z,72.30
2019-02-02T10:18:30.190Z,68.60
2019-02-02T10:19:32.187Z,68.40
2019-02-02T10:20:33.509Z,69.00
2019-02-02T10:21:30.230Z,69.50
2019-02-02T10:22:30.208Z,67.10
2019-02-02T10:23:30.148Z,70.10
2019-02-02T10:24:30.157Z,70.30
2019-02-02T10:25:30.259Z,70.40
2019-02-02T10:26:30.172Z,75.50
2019-02-02T10:27:30.172Z,71.10
2019-02-02T10:28:34.189Z,69.20
2019-02-02T10:29:30.258Z,70.20
2019-02-02T10:30:30.208Z,72.80
2019-02-02T10:31:39.142Z,72.10
2019-02-02T10:32:31.143Z,71.80
2019-02-02T10:33:30.122Z,72.00
2019-02-02T10:34:32.972Z,68.00
2019-02-02T10:35:30.048Z,69.50
2019-02-02T10:36:30.040Z,71.20
2019-02-02T10:37:29.996Z,71.70
2019-02-02T10:38:29.976Z,70.80
2019-02-02T10:39:29.976Z,70.80
2019-02-02T10:40:30.336Z,70.60
2019-02-02T10:41:31.569Z,70.40
2019-02-02T10:42:29.946Z,69.20
2019-02-02T10:43:29.936Z,70.00
2019-02-02T10:44:29.907Z,71.20
2019-02-02T10:45:29.990Z,71.60
2019-02-02T10:46:30.178Z,70.90
2019-02-02T10:47:29.945Z,70.10
2019-02-02T10:48:29.892Z,69.70
2019-02-02T10:49:29.895Z,68.70
2019-02-02T10:50:29.855Z,69.80
2019-02-02T10:51:29.970Z,68.70
2019-02-02T10:52:29.942Z,70.20
2019-02-02T10:53:29.880Z,71.40
2019-02-02T10:54:29.955Z,69.40
2019-02-02T10:55:29.871Z,70.60
2019-02-02T10:56:33.877Z,70.90
2019-02-02T10:57:31.550Z,74.00
2019-02-02T10:58:29.783Z,70.90
2019-02-02T10:59:29.822Z,67.60
2019-02-02T11:00:31.927Z,71.30
2019-02-02T11:01:29.866Z,71.70
2019-02-02T11:02:31.482Z,70.80
2019-02-02T11:03:29.727Z,70.60
2019-02-02T11:04:29.770Z,68.90
2019-02-02T11:05:29.791Z,68.60
2019-02-02T11:06:31.888Z,73.40
2019-02-02T11:07:29.943Z,66.60
2019-02-02T11:08:32.725Z,72.50
2019-02-02T11:10:30.920Z,70.10
2019-02-02T11:11:50.653Z,73.30
2019-02-02T11:12:29.653Z,72.50
2019-02-02T11:13:29.802Z,72.00
2019-02-02T11:14:50.743Z,70.30
2019-02-02T11:15:29.700Z,72.00
2019-02-02T11:16:29.718Z,70.00
2019-02-02T11:17:29.672Z,73.00
2019-02-02T11:18:29.584Z,74.70
2019-02-02T11:19:29.698Z,71.30
2019-02-02T11:20:29.565Z,72.20
2019-02-02T11:21:29.576Z,69.50
2019-02-02T11:22:29.544Z,69.80
2019-02-02T11:23:38.066Z,70.40
2019-02-02T11:24:29.598Z,71.20
2019-02-02T11:25:29.631Z,70.40
2019-02-02T11:26:29.468Z,69.20
2019-02-02T11:27:29.582Z,72.60
2019-02-02T11:28:29.613Z,71.30
2019-02-02T11:29:29.473Z,70.90
2019-02-02T11:30:29.635Z,72.70
2019-02-02T11:31:29.430Z,70.70
2019-02-02T11:32:29.412Z,73.30
2019-02-02T11:33:29.495Z,69.40
2019-02-02T11:34:34.523Z,72.00
2019-02-02T11:36:30.507Z,69.40
2019-02-02T11:37:29.376Z,71.50
2019-02-02T11:38:29.358Z,72.00
2019-02-02T11:39:29.370Z,68.60
2019-02-02T11:40:29.413Z,69.50
2019-02-02T11:41:29.383Z,69.80
2019-02-02T11:43:30.565Z,70.30
2019-02-02T11:44:29.410Z,68.70
2019-02-02T11:45:29.276Z,69.90
2019-02-02T11:46:29.283Z,67.70
2019-02-02T11:47:29.262Z,68.70
2019-02-02T11:48:29.238Z,70.50
2019-02-02T11:49:29.404Z,68.10
2019-02-02T11:50:29.338Z,68.90
2019-02-02T11:51:29.258Z,66.20
2019-02-02T11:52:29.208Z,71.80
2019-02-02T11:53:29.262Z,70.30
2019-02-02T11:54:31.273Z,70.40
2019-02-02T11:55:29.244Z,70.70
2019-02-02T11:56:29.354Z,71.80
2019-02-02T11:57:29.152Z,71.40
2019-02-02T11:58:31.249Z,70.10
2019-02-02T11:59:29.211Z,67.70
2019-02-02T12:00:29.270Z,72.40
2019-02-02T12:02:30.199Z,70.30
2019-02-02T12:04:30.190Z,76.50
2019-02-02T12:06:40.551Z,62.70
2019-02-02T12:09:11.104Z,61.90
2019-02-02T12:10:53.256Z,68.30
2019-02-02T12:11:50.135Z,69.60
2019-02-02T12:12:50.034Z,73.00
2019-02-02T12:13:50.033Z,71.00
2019-02-02T12:14:50.035Z,68.90
2019-02-02T12:16:51.123Z,72.00
2019-02-02T12:17:52.098Z,70.10
2019-02-02T12:18:52.062Z,69.70
2019-02-02T12:19:52.048Z,71.00
2019-02-02T12:20:52.054Z,74.40
2019-02-02T12:21:52.150Z,72.80
2019-02-02T12:22:49.950Z,71.20
2019-02-02T12:23:49.945Z,72.00
2019-02-02T12:24:49.938Z,72.30
2019-02-02T12:25:53.008Z,70.70
2019-02-02T12:26:52.107Z,73.30
2019-02-02T12:27:51.964Z,75.50
2019-02-02T12:28:51.971Z,69.80
2019-02-02T12:29:49.890Z,74.20
2019-02-02T12:30:49.940Z,69.30
2019-02-02T12:31:50.009Z,72.20
2019-02-02T12:32:49.912Z,71.30
2019-02-02T12:33:53.909Z,73.70
2019-02-02T12:34:49.852Z,72.50
2019-02-02T12:35:49.888Z,73.00
2019-02-02T12:38:50.873Z,72.80
2019-02-02T12:39:49.770Z,72.50
2019-02-02T12:40:51.861Z,73.00
2019-02-02T12:41:49.807Z,71.90
2019-02-02T12:42:49.751Z,71.80
2019-02-02T12:43:49.731Z,72.30
2019-02-02T12:44:49.722Z,71.40
2019-02-02T12:45:49.834Z,72.10
2019-02-02T12:46:49.851Z,71.80
2019-02-02T12:47:49.676Z,71.70
2019-02-02T12:48:49.661Z,70.20
2019-02-02T12:49:53.764Z,71.50
2019-02-02T12:50:49.688Z,72.70
2019-02-02T12:51:49.812Z,69.80
2019-02-02T12:52:49.687Z,73.50
2019-02-02T12:53:49.611Z,69.90
2019-02-02T12:54:49.607Z,70.50
2019-02-02T12:55:49.655Z,68.80
2019-02-02T12:56:51.691Z,71.00
2019-02-02T12:57:49.779Z,70.60
2019-02-02T12:58:50.076Z,72.90
2019-02-02T12:59:49.556Z,72.60
2019-02-02T13:00:49.611Z,70.80
2019-02-02T13:01:49.618Z,71.60
2019-02-02T13:02:51.188Z,70.00
2019-02-02T13:04:01.720Z,72.50
2019-02-02T13:04:50.519Z,72.60
2019-02-02T13:05:58.580Z,72.60
2019-02-02T13:06:52.105Z,70.40
2019-02-02T13:07:49.485Z,71.20
2019-02-02T13:08:49.482Z,72.40
2019-02-02T13:09:49.434Z,71.90
2019-02-02T13:10:58.586Z,76.50
2019-02-02T13:11:49.419Z,74.30
2019-02-02T13:12:49.434Z,73.70
2019-02-02T13:13:49.412Z,74.00
2019-02-02T13:14:49.399Z,61.70
2019-02-02T13:15:49.446Z,70.60
2019-02-02T13:16:50.237Z,72.10
2019-02-02T13:17:49.423Z,70.60
2019-02-02T13:18:49.391Z,70.60
2019-02-02T13:19:49.352Z,74.40
2019-02-02T13:20:49.455Z,72.90
2019-02-02T13:21:49.394Z,70.70
2019-02-02T13:22:49.358Z,64.90
2019-02-02T13:23:49.297Z,69.50
2019-02-02T13:24:49.381Z,70.10
2019-02-02T13:25:49.330Z,70.40
2019-02-02T13:26:53.370Z,72.50
2019-02-02T13:27:49.444Z,70.00
2019-02-02T13:28:49.248Z,69.70